Aviation Digital Data Service (ADDS)

Output produced by METARs form (1046 UTC 19 January 2019)
found at http://www.aviationweather.gov/metar/data/
 
TAF CYXX 190538Z 1906/2006 05012KT 6SM -RA BKN030 
     TEMPO 1906/1908 2SM +RA 
     FM190800 06010KT P6SM -RA SCT015 OVC030 
     TEMPO 1908/1912 5SM -RA BR SCT008 OVC020 
     BECMG 1910/1912 18012KT 
     FM191200 18012KT P6SM SCT040 
     TEMPO 1912/1916 BKN030 
     FM191600 17010KT P6SM BKN030 
     TEMPO 1916/1924 P6SM -SHRA BKN020 
     FM200300 09005KT P6SM SCT040 RMK NXT FCST BY 191200Z
       
TAF CYEK 190542Z 1906/1918 33015KT P6SM SKC 
     TEMPO 1906/1912 3SM IC 
     FM191200 32015G25KT 4SM IC SCT080 
     TEMPO 1912/1916 1SM IC BLSN 
     FM191600 31020G30KT 1SM IC BLSN BKN080 RMK FCST BASED ON AUTO OBS. NXT FCST
BY 191200Z
       
TAF CYBG 190530Z 1906/2006 28018G28KT 6SM BLSN SCT050 
     TEMPO 1906/1909 5SM BLSN 
     BECMG 1907/1909 28012KT 
     FM191800 28008KT P6SM BKN200 
     BECMG 1920/1922 VRB03KT 
     FM200000 VRB03KT P6SM BKN140 RMK NXT FCST BY 191200Z
       
TAF CYBC 190738Z 1908/1920 29010G20KT P6SM FEW020 
     TEMPO 1908/1911 5SM -SN BLSN BKN020 
     FM191100 30010KT P6SM SKC RMK FCST BASED ON AUTO OBS. NXT FCST BY 191400Z
       
TAF AMD CYBK 191011Z 1910/1918 20010KT 4SM IC BLSN BKN080 
     TEMPO 1910/1918 1SM IC BLSN 
     BECMG 1910/1912 30025G35KT RMK NXT FCST BY 191200Z
       
TAF CZBF 190938Z 1910/1922 34010G20KT P6SM BKN030 
     TEMPO 1910/1912 11/2SM -SN 
     FM191200 30010G20KT P6SM SKC RMK FCST BASED ON AUTO OBS. NXT FCST BY
191400Z
       
TAF CYBR 190538Z 1906/1918 30006KT P6SM SKC 
     BECMG 1916/1918 03006KT RMK NXT FCST BY 191200Z
       
TAF CYVT 190039Z 1901/1904 VRB03KT P6SM SCT220 RMK NXT FCST WILL BE ISSUED AT
191345Z
       
TAF CYDB 190538Z 1906/1918 12005KT 5SM -SN BR OVC012 
     TEMPO 1906/1918 P6SM NSW OVC025 
     PROB30 1909/1915 BKN008 RMK FCST BASED ON AUTO OBS. NXT FCST BY 191200Z
       
TAF CYYC 190838Z 1909/2006 18010KT 4SM IC BR FEW003 SCT008 
     TEMPO 1909/1914 11/2SM IC BKN003 
     FM191400 18010KT 5SM IC BR FEW004 OVC008 
     TEMPO 1914/1917 2SM IC OVC004 
     FM191700 19005KT P6SM BKN008 
     TEMPO 1918/1920 SCT008 BKN012 
     FM192000 21005KT P6SM SCT012 
     BECMG 1922/1924 26010KT SKC 
     FM200200 24008KT P6SM SKC 
     TEMPO 2002/2006 27015G25KT RMK NXT FCST BY 191200Z
       
TAF AMD CYBW 190453Z 1904/1905 VRB02KT 4SM -SN IC BKN003 
     TEMPO 1904/1905 P6SM NSW SCT003 RMK FCST BASED ON AUTO OBS. NXT FCST WILL
BE ISSUED AT 191245Z
       
TAF CYCB 190638Z 1907/1919 28020G30KT 6SM IC SCT080 BKN140 
     TEMPO 1907/1909 2SM IC BLSN BKN080 
     FM190900 28022G32KT 11/2SM -SN BLSN SCT020 BKN080 
     TEMPO 1909/1919 5SM BLSN RMK NXT FCST BY 191300Z
       
TAF CYBL 190038Z 1901/1905 12020G30KT P6SM -RA SCT008 OVC015 
     TEMPO 1901/1905 3SM -RA BR OVC008 RMK NXT FCST WILL BE ISSUED AT 191545Z
       
TAF CYTE 190638Z 1907/1919 26008KT P6SM SKC 
     BECMG 1911/1913 26012KT 
     FM191300 26012KT P6SM FEW080 
     BECMG 1915/1917 26017KT 
     FM191700 26017KT 5SM IC SCT080 RMK FCST BASED ON AUTO OBS. NXT FCST BY
191300Z
       
TAF AMD CYYG 191040Z 1910/1918 33015G25KT P6SM -SHSN BKN030 
     TEMPO 1910/1912 4SM -SHSN 
     FM191200 34015G25KT P6SM SCT030 
     BECMG 1915/1917 32010G20KT RMK NXT FCST BY 191200Z
       
TAF AMD CYMT 182345Z 1823/1901 31015G25KT 6SM -SN SCT015 OVC040 
     TEMPO 1823/1901 3/4SM -SN OVC015 RMK FCST BASED ON AUTO OBS. NXT FCST WILL
BE ISSUED AT 191245Z
       
TAF CYYQ 190538Z 1906/2006 31012KT P6SM IC SKC 
     FM192100 27015G25KT P6SM IC SCT100 
     TEMPO 1921/2006 11/2SM BLSN RMK NXT FCST BY 191200Z
       
TAF CZUM 190738Z 1908/1920 31010G20KT 11/2SM -SN OVC020 
     TEMPO 1908/1909 6SM -SN OVC025 
     FM190900 31010G20KT P6SM OVC025 
     TEMPO 1909/1911 2SM -SN OVC020 
     FM191100 31015G25KT P6SM OVC025 
     TEMPO 1911/1914 21/2SM -SN OVC020 
     FM191400 31015G25KT P6SM BKN025 
     TEMPO 1914/1920 BKN020 RMK FCST BASED ON AUTO OBS. NXT FCST BY 191400Z
       
TAF CYCY 190638Z 1907/1919 30010KT P6SM FEW040 
     FM191500 33010KT P6SM SCT040 
     TEMPO 1915/1919 BKN040 RMK FCST BASED ON AUTO OBS. NXT FCST BY 191300Z
       
TAF CYOD 190530Z 1906/2006 VRB03KT P6SM SCT080 OVC250 
     BECMG 1910/1912 FEW030 OVC070 
     FM191700 11012KT 6SM -SN OVC030 
     TEMPO 1917/1919 3SM -SN OVC020 
     FM191900 11010G20KT 2SM -SN OVC020 
     TEMPO 1919/1923 5SM -SN SCT020 OVC030 
     PROB30 1919/1923 1SM -SN 
     FM192300 11010G20KT 6SM -SN SCT010 OVC025 
     TEMPO 1923/2006 2SM -SN SCT006 OVC010 RMK NXT FCST BY 191200Z
       
TAF CYQQ 190539Z 1906/2006 14025G35KT P6SM -RA SCT012 OVC025 
     TEMPO 1906/1909 14030G40KT 3SM RA BR OVC012 
     FM190900 14020G35KT P6SM SCT012 OVC040 
     TEMPO 1909/1911 4SM -RA BR OVC012 
     BECMG 1909/1911 18012G22KT 
     FM191100 18012G22KT P6SM FEW012 SCT040 RMK NXT FCST BY 191200Z
       
TAF CYZS 190638Z 1907/1919 34012KT P6SM IC FEW080 SCT120 
     FM191000 33012G22KT P6SM FEW040 BKN080 
     TEMPO 1910/1919 3SM IC BLSN RMK NXT FCST BY 191300Z
       
TAF CYXC 190638Z 1907/1919 VRB03KT P6SM SCT040 BKN120 
     TEMPO 1907/1909 5SM -SN BR SCT012 BKN020 OVC040 
     FM190900 VRB03KT P6SM SCT012 OVC025 
     TEMPO 1909/1919 5SM -SN SCT006 OVC012 RMK NXT FCST BY 191300Z
       
TAF CYDN 190538Z 1906/1918 25010KT P6SM SKC 
     BECMG 1916/1918 03006KT RMK FCST BASED ON AUTO OBS. NXT FCST BY 191200Z
       
TAF CYDQ 190038Z 1901/1905 08004KT 6SM -SN SCT015 OVC030 
     TEMPO 1901/1902 11/2SM -SN OVC015 
     FM190200 06004KT P6SM SCT020 OVC050 
     TEMPO 1902/1905 3SM -SN OVC020 RMK FCST BASED ON AUTO OBS. NXT FCST WILL BE
ISSUED AT 191245Z
       
TAF CYDL 182338Z 1900/1903 36010KT P6SM -SN OVC040 
     TEMPO 1900/1903 1SM -SN OVC020 RMK FCST BASED ON AUTO OBS. NXT FCST WILL BE
ISSUED AT 191645Z
       
TAF CYDF 190738Z 1908/1920 VRB03KT P6SM -SN OVC025 
     TEMPO 1908/1912 11/2SM -SHSN OVC015 
     BECMG 1910/1912 21012G22KT 
     FM191200 21015G25KT 2SM -SHSN BLSN OVC020 
     BECMG 1913/1915 6SM -SHSN BLSN RMK NXT FCST BY 191400Z
       
TAF CYHD 190738Z 1908/1920 27005KT P6SM SCT140 
     BECMG 1916/1918 30008KT RMK FCST BASED ON AUTO OBS. NXT FCST BY 191400Z
       
TAF CYEG 190838Z 1909/2006 13015KT P6SM -SN SCT030 OVC070 
     TEMPO 1909/1912 BKN030 
     FM191200 13015G25KT P6SM SCT012 OVC030 
     TEMPO 1912/1915 BKN012 
     FM191500 13015G25KT P6SM -SN SCT012 OVC030 
     TEMPO 1915/1917 3SM -SHSN BKN012 
     FM191700 14020G30KT P6SM BKN020 OVC100 
     TEMPO 1917/1920 6SM BLSN 
     FM192100 16012G22KT P6SM SCT025 BKN100 
     BECMG 1922/1924 14010KT 
     FM200200 12005KT P6SM BKN080 
     TEMPO 2004/2006 6SM -SHSN 
     BECMG 2004/2006 16004KT RMK NXT FCST BY 191200Z
       
TAF CZVL 190540Z 1906/1918 14010KT P6SM SCT020 BKN040 
     TEMPO 1906/1910 P6SM -SN OVC020 
     FM191000 14012G22KT P6SM SCT012 OVC030 
     TEMPO 1910/1915 BKN012 
     FM191500 13012G22KT P6SM -SN SCT012 OVC030 
     TEMPO 1915/1917 11/2SM -SHSN VV012 
     FM191700 14015G25KT P6SM BKN020 OVC100 
     TEMPO 1917/1918 6SM BLSN RMK FCST BASED ON AUTO OBS. NXT FCST BY 191200Z
       
TAF CYPY 182339Z 1900/1907 06005KT P6SM SKC RMK FCST BASED ON AUTO OBS. NXT FCST
WILL BE ISSUED AT 191245Z
       
TAF CYMM 190638Z 1907/1919 08005KT P6SM SCT160 
     FM191000 11005KT P6SM BKN140 
     BECMG 1915/1917 11010KT 
     FM191800 12012KT P6SM BKN100 RMK FCST BASED ON AUTO OBS. NXT FCST BY
191300Z
       
TAF CYYE 190638Z 1907/1919 VRB03KT P6SM -SN OVC020 
     TEMPO 1907/1917 P6SM NSW SCT020 OVC040 
     FM191700 30003KT 5SM -SN SCT015 OVC025 
     TEMPO 1917/1918 2SM -SN VV015 RMK NXT FCST BY 191300Z
       
TAF CYFS 190538Z 1906/1918 14008KT P6SM SCT050 OVC100 
     TEMPO 1906/1909 5SM -SN BKN050 OVC100 
     FM190900 15008KT 6SM -SN SCT020 OVC050 
     TEMPO 1909/1918 2SM -SN BKN020 OVC030 
     PROB30 1909/1914 1SM -SN RMK NXT FCST BY 191200Z
       
TAF CYSM 190540Z 1906/1918 VRB02KT P6SM SCT230 
     FM191000 13005KT P6SM BKN130 
     BECMG 1914/1916 13008KT WS005/14030KT RMK NXT FCST BY 191200Z
       
TAF CYXJ 190638Z 1907/1919 11015KT P6SM -SN OVC020 
     FM191000 11010KT P6SM -SN OVC015 
     TEMPO 1911/1914 P6SM NSW SCT015 OVC025 
     FM191400 09008KT 3/4SM -SN VV008 
     TEMPO 1914/1917 3SM -SN VV020 
     BECMG 1917/1918 6SM -SN OVC020 
     FM191800 VRB03KT P6SM -SN OVC020 RMK NXT FCST BY 191300Z
       
TAF CYFC 190540Z 1906/1918 26010G20KT P6SM FEW050 
     TEMPO 1906/1908 4SM -SHSN BKN050 
     FM190800 30010KT P6SM FEW030 
     FM191200 31005KT P6SM SKC RMK FCST BASED ON AUTO OBS. NXT FCST BY 191200Z
       
TAF CYQX 190538Z 1906/2006 15012KT P6SM FEW008 BKN025 
     TEMPO 1906/1909 4SM -SN BKN008 OVC025 
     BECMG 1907/1909 15015G25KT 
     FM190900 16015G25KT 6SM -SN BKN025 OVC050 
     TEMPO 1909/1915 21/2SM -SN BLSN OVC012 
     PROB30 1910/1915 1SM -SN BLSN 
     FM191500 23015G30KT 4SM -SN OVC015 
     PROB30 1915/1917 21/2SM -FZDZ BR 
     FM191700 27018G28KT P6SM BKN020 
     BECMG 1919/1921 29015G25KT SCT020 
     FM200000 28012G22KT P6SM FEW020 RMK NXT FCST BY 191200Z
       
TAF CYGP 190738Z 1908/1920 27015G25KT P6SM -SN FEW030 
     TEMPO 1908/1913 3SM -SN BLSN BKN030 
     FM191300 29015G25KT P6SM SCT030 
     FM191500 30012KT P6SM FEW030 RMK NXT FCST BY 191400Z
       
TAF AMD CYND 190005Z 1900/1902 25005KT P6SM -SHSN BKN030 OVC060 
     TEMPO 1900/1901 3/4SM -SHSN VV007 
     BECMG 1900/1901 31010G20KT RMK NXT FCST WILL BE ISSUED AT 191345Z
       
TAF CYGQ 190738Z 1908/1920 VRB03KT P6SM SKC 
     BECMG 1914/1916 28006KT RMK NXT FCST BY 191400Z
       
TAF AMD CYHK 190946Z 1909/1918 31020G30KT 2SM BLSN BKN020 
     TEMPO 1909/1918 6SM BLSN BR SCT020 BKN060 
     PROB40 1909/1918 1SM BLSN RMK FCST BASED ON AUTO OBS. NXT FCST BY 191200Z
       
TAF AMD CYYR 191043Z 1910/2006 28008KT 3/4SM -SN VV006 
     TEMPO 1910/1913 3SM -SN OVC020 
     BECMG 1911/1913 29015G25KT 
     FM191300 28015G25KT 6SM BLSN BKN025 
     TEMPO 1913/1918 1SM -SHSN BLSN VV008 
     BECMG 1913/1915 29020G35KT 
     FM191800 28020G35KT 6SM BLSN BKN025 
     TEMPO 1918/1920 1SM -SHSN BLSN VV008 
     BECMG 1918/1920 29020G30KT 
     FM192000 29020G30KT P6SM SCT025 
     TEMPO 1920/1923 2SM BLSN 
     BECMG 1921/1923 29015G25KT 
     FM192300 29015G25KT P6SM FEW025 
     PROB30 1923/2002 2SM BLSN 
     FM200200 29015KT P6SM FEW020 RMK NXT FCST BY 191200Z
       
TAF CYZE 191038Z 1911/1923 05012KT P6SM SCT170 RMK FCST BASED ON AUTO OBS. NXT
FCST BY 191400Z
       
TAF AMD CYQU 190910Z 1909/1919 05007KT P6SM FEW025 OVC080 
     TEMPO 1910/1912 BKN020 
     FM191200 05007KT P6SM SCT010 OVC025 
     TEMPO 1912/1914 4SM -SN BR BKN010 
     FM191400 04006KT 3SM -SN VV020 
     TEMPO 1914/1916 1SM -SN VV010 
     FM191600 02006KT 3/4SM -SN VV008 
     TEMPO 1916/1917 2SM -SN VV015 
     BECMG 1917/1918 6SM -SN OVC015 
     FM191800 VRB03KT P6SM OVC015 RMK NXT FCST BY 191300Z
       
TAF AMD CYZX 190707Z 1907/2006 25007KT 1SM -SHSN OVC012 
     TEMPO 1907/1908 6SM -SHSN OVC025 
     FM190800 31015G25KT P6SM SCT015 BKN030 
     FM191100 32010G20KT P6SM SCT240 
     FM191500 34008G18KT P6SM FEW025 SCT120 
     FM192200 VRB03KT P6SM FEW020 OVC120 RMK NXT FCST BY 191200Z
       
TAF CYHZ 190838Z 1909/2006 15006KT 2SM BR OVC003 
     TEMPO 1909/1910 6SM -SN -FZDZ BR FEW003 OVC025 
     FM191000 33010KT 5SM -SHSN BKN015 BKN030 
     TEMPO 1910/1912 P6SM NSW SCT015 BKN030 
     FM191200 32012KT P6SM BKN030 
     FM191600 34010KT P6SM FEW030 SCT200 
     BECMG 1918/1920 03007KT 
     FM200000 03005KT P6SM BKN200 RMK NXT FCST BY 191200Z
       
TAF AMD CYUX 190915Z 1909/1919 30015G25KT 2SM -SN BLSN BKN020 OVC060 
     TEMPO 1909/1913 P6SM NSW SCT020 BKN060 
     FM191300 30012KT P6SM SCT020 BKN060 
     TEMPO 1913/1919 4SM -SN BKN020 BKN060 RMK FCST BASED ON AUTO OBS. NXT FCST
BY 191300Z
       
TAF CYHM 190538Z 1906/2006 33007KT P6SM FEW025 BKN250 
     BECMG 1907/1909 03010G20KT 
     FM191000 03012G22KT 21/2SM -SN BLSN BKN015 OVC070 
     TEMPO 1910/1914 6SM -SN SCT015 OVC070 
     FM191400 04015G25KT 1SM -SN BLSN VV010 
     FM191800 04015G25KT 1/2SM -SN BLSN VV005 
     BECMG 1920/1922 03020G30KT RMK NXT FCST BY 191200Z
       
TAF CYGV 190738Z 1908/1920 25020G35KT 6SM -SHSN BKN025 
     TEMPO 1908/1910 3/4SM -SHSN BLSN 
     BECMG 1908/1910 29015G25KT 
     FM191000 29015G25KT P6SM -SN SCT025 
     TEMPO 1910/1912 2SM -SN BLSN BKN025 
     FM191200 29015G25KT P6SM FEW030 
     BECMG 1915/1917 30012KT RMK FCST BASED ON AUTO OBS. NXT FCST BY 191400Z
       
TAF CYHY 190538Z 1906/1918 10008KT P6SM BKN140 
     BECMG 1916/1918 12012G22KT RMK NXT FCST BY 191200Z
       
TAF AMD CYOJ 190849Z 1908/1919 14015G25KT 6SM -SN OVC025 
     TEMPO 1908/1911 4SM -SN OVC020 
     FM191100 14010G20KT 6SM -SN SCT015 OVC030 
     TEMPO 1911/1916 2SM -SN VV015 
     FM191600 12010KT 3/4SM -SN VV008 
     TEMPO 1916/1919 2SM -SN VV015 RMK FCST BASED ON AUTO OBS. NXT FCST BY
191300Z
       
TAF CYEV 190638Z 1907/1919 08012KT P6SM SCT040 BKN100 
     TEMPO 1907/1909 4SM -SN BKN040 
     FM190900 09010KT P6SM BKN040 BKN100 
     TEMPO 1909/1919 4SM -SN BKN020 BKN040 RMK NXT FCST BY 191300Z
       
TAF AMD CYFB 191006Z 1910/2006 34015G25KT 11/2SM IC BLSN BKN100 
     TEMPO 1910/1912 3SM IC BLSN SCT100 
     FM191200 34020KT P6SM FEW100 
     TEMPO 1912/1916 2SM IC BLSN 
     FM191600 34015KT P6SM FEW150 
     BECMG 1922/1924 33010KT RMK NXT FCST BY 191200Z
       
TAF CYKA 190638Z 1907/1919 09015KT P6SM SCT025 BKN060 
     FM191500 10015KT WS005/20020KT P6SM SCT040 RMK NXT FCST BY 191300Z
       
TAF CYYU 190738Z 1908/1920 VRB03KT P6SM SKC 
     BECMG 1914/1916 20006KT RMK NXT FCST BY 191400Z
       
TAF CYLW 190638Z 1907/1919 VRB03KT P6SM SCT030 OVC060 
     TEMPO 1907/1914 3SM -RASN BR SCT008 OVC020 
     BECMG 1907/1909 17008KT 
     FM191400 15005KT P6SM BKN040 
     TEMPO 1914/1919 6SM -RA BR BKN020 RMK FCST BASED ON AUTO OBS. NXT FCST BY
191300Z
       
TAF CYQK 190738Z 1908/1920 VRB03KT P6SM SCT140 
     BECMG 1912/1914 26006KT RMK NXT FCST BY 191400Z
       
TAF CYKF 190738Z 1908/1920 01008KT P6SM SCT030 OVC080 
     TEMPO 1908/1909 P6SM -SN BKN020 OVC080 
     FM190900 04008KT 6SM -SN SCT020 OVC070 
     TEMPO 1909/1913 21/2SM -SN BKN020 OVC070 
     FM191300 06010KT 11/2SM -SN BKN015 OVC060 
     BECMG 1916/1918 06012G22KT RMK FCST BASED ON AUTO OBS. NXT FCST BY 191400Z
       
TAF CYCO 190638Z 1907/1919 23012KT P6SM SKC RMK NXT FCST BY 191300Z
       
TAF CYVP 190538Z 1906/1918 22005KT P6SM SCT080 
     TEMPO 1906/1917 6SM IC 
     BECMG 1910/1912 23010KT 
     FM191700 24012G22KT P6SM SCT080 RMK NXT FCST BY 191200Z
       
TAF CYGL 190538Z 1906/2006 23006KT P6SM FEW020 
     TEMPO 1906/1912 4SM IC 
     FM191800 24010G20KT P6SM SCT012 
     PROB40 1918/1923 11/2SM IC 
     FM192300 20008KT 6SM IC FEW010 RMK NXT FCST BY 191200Z
       
TAF CYVC 190638Z 1907/1919 VRB02KT P6SM SKC 
     FM191800 07008KT P6SM SCT200 RMK NXT FCST BY 191300Z
       
TAF CYQL 190540Z 1906/1918 26006KT P6SM FEW180 BKN270 
     FM191100 22010KT P6SM SCT080 BKN180 
     TEMPO 1911/1915 14005KT 
     FM191500 20015KT P6SM BKN270 
     BECMG 1917/1918 24015G25KT SCT270 RMK FCST BASED ON AUTO OBS. NXT FCST BY
191200Z
       
TAF CYLL 190540Z 1906/1918 11008KT P6SM OVC070 
     TEMPO 1907/1909 6SM -SN OVC060 
     BECMG 1909/1911 11012KT 
     FM191300 11015KT P6SM OVC050 
     BECMG 1914/1916 12015G25KT 
     FM191700 12018G28KT 4SM -SN VV030 
     TEMPO 1917/1918 1SM -SN BLSN VV010 RMK FCST BASED ON AUTO OBS. NXT FCST BY
191200Z
       
TAF AMD CYXU 191000Z 1910/2006 06008KT 11/2SM -SN OVC020 
     TEMPO 1910/1915 3SM -SN BKN020 OVC050 
     BECMG 1912/1914 06012G22KT 
     FM191500 06015G25KT 3/4SM -SN BLSN VV007 
     FM200400 04015G25KT 21/2SM -SN BLSN OVC020 RMK NXT FCST BY 191200Z
       
TAF CYBX 190738Z 1908/1920 16020KT P6SM -SN OVC025 
     TEMPO 1908/1910 1SM -SHSN BLSN VV008 
     PROB40 1908/1910 3/4SM -SHSN BLSN VV007 
     FM191000 15015G30KT 3/4SM -SN BLSN VV007 
     TEMPO 1910/1912 6SM -SN OVC010 
     FM191200 15025G35KT 3/4SM -SHSN BLSN VV007 
     BECMG 1913/1915 6SM BLSN BKN020 
     FM191500 24025G35KT P6SM SCT020 
     TEMPO 1915/1920 BKN020 
     BECMG 1918/1920 28020G30KT RMK NXT FCST BY 191400Z
       
TAF CYYL 190638Z 1907/1919 31006KT P6SM SKC RMK FCST BASED ON AUTO OBS. NXT FCST
BY 191300Z
       
TAF CYZY 190638Z 1907/1909 VRB03KT P6SM OVC012 
     TEMPO 1907/1909 2SM -SN BR BKN006 OVC012 RMK FCST BASED ON AUTO OBS. NXT
FCST WILL BE ISSUED AT 191445Z
       
TAF CYMA 190538Z 1906/1918 VRB03KT P6SM SKC 
     FM190900 VRB03KT P6SM SCT040 
     TEMPO 1909/1918 P6SM -SN BKN040 RMK NXT FCST BY 191200Z
       
TAF CYXH 190540Z 1906/1918 VRB03KT P6SM OVC100 
     TEMPO 1906/1911 05005KT 
     FM191100 05005KT P6SM FEW100 
     TEMPO 1911/1916 2SM IC BR 
     PROB30 1912/1915 3/4SM IC BR VV006 RMK FCST BASED ON AUTO OBS. NXT FCST BY
191200Z
       
TAF CYQM 190540Z 1906/2006 20008KT 11/2SM -SN OVC030 
     TEMPO 1906/1908 6SM -SN 
     FM190800 29012KT P6SM BKN030 
     TEMPO 1908/1912 21/2SM -SHSN 
     FM191200 31010KT P6SM FEW030 
     FM191500 32012KT P6SM SKC 
     BECMG 1916/1918 32005KT 
     FM200000 VRB03KT P6SM BKN200 RMK NXT FCST BY 191200Z
       
TAF CYYY 190738Z 1908/1920 29020G35KT P6SM -SHSN BKN040 
     TEMPO 1908/1912 21/2SM -SHSN 
     FM191200 31010G20KT P6SM SCT030 
     BECMG 1916/1918 30010KT RMK NXT FCST BY 191400Z
       
TAF CYUL 190838Z 1909/2006 36010KT P6SM FEW060 SCT090 
     FM191100 01010KT P6SM OVC160 
     FM191500 04010KT P6SM OVC120 
     FM192100 04010KT 21/2SM -SN FEW020 OVC080 
     BECMG 1923/2001 04012G22KT 
     FM200500 04015G25KT 1SM -SN BLSN VV010 RMK NXT FCST BY 191200Z
       
TAF CYMX 190538Z 1906/2006 34007KT P6SM FEW240 
     FM190900 VRB03KT P6SM BKN180 
     FM191500 07006KT P6SM OVC120 
     FM192100 07006KT 21/2SM -SN FEW020 OVC080 
     FM200500 04008KT 11/2SM -SN BKN015 OVC030 RMK NXT FCST BY 191200Z
       
TAF CYHU 190538Z 1906/2006 34008KT P6SM FEW060 SCT240 
     FM191100 01010KT P6SM OVC160 
     FM191500 04012KT P6SM OVC120 
     FM192100 04012KT 21/2SM -SN SCT020 OVC070 
     BECMG 1923/2001 04012G22KT 
     FM200300 03015G25KT 1SM -SN BLSN VV010 RMK FCST BASED ON AUTO OBS. NXT FCST
BY 191200Z
       
TAF CYMJ 182330Z 1900/1912 07005KT P6SM BKN100 
     FM190400 10006KT P6SM SCT050 OVC080 RMK NXT FCST BY 190600Z
       
TAF AMD CYQA 190114Z 1901/1903 34010G20KT 21/2SM -SN OVC015 
     TEMPO 1901/1903 P6SM NSW BKN040 RMK FCST BASED ON AUTO OBS. NXT FCST WILL
BE ISSUED AT 191245Z
       
TAF CYCD 182338Z 1900/1905 11010KT P6SM -RA SCT012 BKN040 
     TEMPO 1900/1905 4SM -RA BR SCT004 OVC010 
     BECMG 1900/1902 12010G20KT RMK NXT FCST WILL BE ISSUED AT 191545Z
       
TAF AMD CYNA 190926Z 1909/1920 26025G40KT 1/2SM SN BLSN OVC008 
     TEMPO 1909/1912 3SM -SN OVC020 
     FM191200 27020G35KT P6SM BKN030 
     TEMPO 1912/1914 2SM -SN BLSN 
     FM191400 30015G25KT P6SM SCT030 RMK FCST BASED ON AUTO OBS. NXT FCST BY
191400Z
       
TAF CYVQ 190538Z 1906/1918 11020G30KT P6SM SCT020 BKN080 
     TEMPO 1906/1909 3SM -SN BLSN BKN020 
     FM190900 11020G30KT P6SM SCT080 
     TEMPO 1909/1912 5SM -BLSN FEW020 BKN080 
     FM191200 11015G25KT P6SM SCT100 RMK NXT FCST BY 191200Z
       
TAF AMD CYQW 190938Z 1909/1918 11008KT P6SM SCT080 
     TEMPO 1910/1918 BKN080 
     BECMG 1910/1912 11015KT RMK FCST BASED ON AUTO OBS. NXT FCST BY 191200Z
       
TAF CYYB 190738Z 1908/1920 03010KT P6SM BKN170 
     BECMG 1908/1910 05010KT RMK FCST BASED ON AUTO OBS. NXT FCST BY 191400Z
       
TAF CYOO 190738Z 1908/1920 03008KT P6SM FEW025 BKN120 
     FM191200 04010KT 6SM -SN FEW020 OVC090 
     TEMPO 1912/1915 21/2SM -SN BKN020 OVC090 
     FM191500 04012G22KT 11/2SM -SN OVC015 RMK FCST BASED ON AUTO OBS. NXT FCST
BY 191400Z
       
TAF CYOW 190838Z 1909/2006 01008KT P6SM SCT170 BKN250 
     FM191300 01010KT P6SM OVC120 
     FM192000 06010KT 21/2SM -SN SCT015 OVC080 
     BECMG 1922/1924 06012KT 
     FM200500 06012G22KT 1SM -SN VV010 RMK NXT FCST BY 191200Z
       
TAF CYPE 190638Z 1907/1919 08010KT P6SM -SN OVC040 
     FM191000 08010KT P6SM SCT015 BKN030 
     TEMPO 1910/1916 5SM -SN BKN015 
     FM191600 08010KT 3SM -SN VV020 
     TEMPO 1916/1918 1SM -SN VV010 
     FM191800 08010KT 3/4SM -SN VV008 
     TEMPO 1918/1919 11/2SM -SN VV012 RMK NXT FCST BY 191300Z
       
TAF CYYF 190638Z 1907/1919 18018G28KT P6SM SCT012 OVC030 
     TEMPO 1907/1916 4SM -RA BR BKN015 
     FM191600 18012KT P6SM BKN030 
     TEMPO 1916/1919 6SM -RA BR RMK NXT FCST BY 191300Z
       
TAF CYWA 190530Z 1906/1918 VRB03KT P6SM SKC 
     BECMG 1907/1909 BKN140 RMK FCST BASED ON AUTO OBS. NXT FCST BY 191200Z
       
TAF CYPQ 191038Z 1911/1923 03010KT P6SM BKN120 
     FM191400 03010KT 6SM -SN FEW020 OVC080 
     TEMPO 1914/1916 11/2SM -SN BKN020 OVC080 
     FM191600 03010KT 11/2SM -SN BKN020 OVC060 RMK FCST BASED ON AUTO OBS. NXT
FCST BY 191400Z
       
TAF CYIO 190638Z 1907/1919 18005KT P6SM FEW020 BKN080 
     TEMPO 1907/1909 5SM IC SCT020 BKN080 RMK FCST BASED ON AUTO OBS. NXT FCST
BY 191300Z
       
TAF AMD CYZT 190918Z 1909/1919 15018G28KT P6SM -RA SCT030 OVC050 
     TEMPO 1909/1913 5SM -RA BR BKN020 
     FM191300 19015G30KT P6SM BKN040 
     TEMPO 1913/1919 5SM -RA BR RMK NXT FCST BY 191300Z
       
TAF CYPA 190638Z 1907/1919 VRB02KT P6SM SKC 
     FM191500 08010KT P6SM SCT150 RMK NXT FCST BY 191300Z
       
TAF AMD CYXS 191014Z 1910/1919 36008KT 6SM -SN SCT012 OVC030 
     TEMPO 1910/1914 1SM -SN BR OVC012 
     FM191400 VRB03KT P6SM SCT080 BKN200 
     TEMPO 1914/1917 BKN080 
     FM191700 15008KT P6SM BKN200 RMK FCST BASED ON AUTO OBS. NXT FCST BY
191300Z
       
TAF CYPR 190638Z 1907/1919 05005KT P6SM -RA BKN060 
     TEMPO 1907/1910 4SM -RA BR 
     FM191000 08008KT P6SM BKN060 
     TEMPO 1910/1919 5SM -SHRA BR BKN050 RMK FCST BASED ON AUTO OBS. NXT FCST BY
191300Z
       
TAF CYPX 190542Z 1906/1918 30015KT 5SM IC SCT012 BKN030 
     TEMPO 1906/1918 11/2SM -SN BLSN BKN015 OVC030 RMK FCST BASED ON AUTO OBS.
NXT FCST BY 191200Z
       
TAF CYVM 190638Z 1907/1919 21015KT P6SM SKC 
     BECMG 1909/1911 21010KT RMK FCST BASED ON AUTO OBS. NXT FCST BY 191300Z
       
TAF CYQB 190538Z 1906/2006 27010KT P6SM SKC 
     BECMG 1912/1914 33005KT 
     FM191800 10008KT P6SM FEW025 BKN120 
     BECMG 2000/2002 06012G22KT 
     FM200500 06015G25KT P6SM -SN BKN040 RMK NXT FCST BY 191200Z
       
TAF AMD CYQZ 190436Z 1904/1906 14005KT P6SM SCT008 BKN130 
     TEMPO 1904/1906 2SM BR BKN008 RMK FCST BASED ON AUTO OBS. NXT FCST WILL BE
ISSUED AT 191145Z
       
TAF AMD CYRT 190923Z 1909/1918 34015KT P6SM IC SKC 
     TEMPO 1909/1911 2SM IC BLSN 
     FM191100 33015G25KT 4SM IC BLSN SCT080 
     TEMPO 1911/1914 1SM IC BLSN BKN080 
     FM191400 32020G30KT 1SM IC BLSN BKN080 RMK NXT FCST BY 191200Z
       
TAF AMD CYQF 190813Z 1908/1918 16015KT P6SM SCT012 OVC080 
     TEMPO 1908/1910 4SM -SN BKN012 
     FM191000 16015KT P6SM SCT005 OVC010 
     TEMPO 1910/1918 4SM -SN BR BKN005 RMK NXT FCST BY 191200Z
       
TAF CYQR 190538Z 1906/2006 12005KT P6SM OVC100 
     FM191700 12012KT P6SM BKN060 
     TEMPO 1919/1922 6SM -SN 
     FM192200 12018G28KT 3SM -SN OVC020 
     TEMPO 1922/2006 1SM -SN BLSN VV008 RMK NXT FCST BY 191200Z
       
TAF CYRB 190542Z 1906/2006 35025G35KT 2SM BLSN SCT020 
     TEMPO 1906/1921 35030G40KT 1/2SM IC BLSN BKN020 
     FM192100 36025G35KT 3SM IC BLSN SCT020 
     TEMPO 1921/2004 1SM IC BLSN 
     BECMG 2004/2006 36015G25KT RMK NXT FCST BY 191200Z
       
TAF CYUY 190538Z 1906/1918 VRB03KT P6SM SKC RMK NXT FCST BY 191200Z
       
TAF CYSJ 190540Z 1906/1918 28010G20KT P6SM FEW004 OVC025 
     TEMPO 1906/1908 3SM -SHSN OVC004 
     FM190800 31015G25KT P6SM FEW030 
     TEMPO 1908/1912 5SM -SHSN BKN030 
     FM191200 33010G20KT P6SM SKC 
     BECMG 1916/1918 34008KT RMK NXT FCST BY 191200Z
       
TAF AMD CYZP 190841Z 1908/1919 09020G30KT P6SM -RA SCT006 OVC015 
     TEMPO 1908/1918 2SM RA BR SCT002 BKN006 OVC012 
     BECMG 1916/1918 34010KT 
     FM191800 34010KT P6SM -RA SCT020 BKN040 
     TEMPO 1918/1919 5SM -RA BR BKN020 OVC040 RMK FCST BASED ON AUTO OBS. NXT
FCST BY 191300Z
       
TAF AMD CYZR 191006Z 1910/1921 09012G22KT 3SM -SN OVC020 
     TEMPO 1910/1912 1SM -SN OVC008 
     FM191200 06012KT 3/4SM -SN OVC006 
     TEMPO 1912/1918 2SM -SN OVC010 
     FM191800 05012KT 4SM -SN OVC025 
     PROB30 1918/1921 21/2SM -SN OVC020 RMK FCST BASED ON AUTO OBS. NXT FCST BY
191400Z
       
TAF AMD CYXE 190936Z 1909/2006 06006KT P6SM SCT150 
     TEMPO 1909/1920 BKN100 
     BECMG 1916/1918 12012KT 
     FM192000 12015G25KT P6SM BKN060 
     TEMPO 1920/1923 5SM -SN 
     FM192300 12015G25KT 3SM -SN OVC020 
     TEMPO 1923/2006 1SM -SN BLSN VV008 RMK NXT FCST BY 191200Z
       
TAF CYAM 190738Z 1908/1920 06008KT P6SM BKN160 
     FM191500 06010KT P6SM SKC RMK NXT FCST BY 191400Z
       
TAF CYKL 190738Z 1908/1920 33008KT P6SM SCT020 
     TEMPO 1908/1912 2SM -SN IC BKN020 
     BECMG 1909/1911 29012G22KT 
     FM191200 29012G22KT P6SM SCT020 
     TEMPO 1912/1920 21/2SM IC BLSN 
     BECMG 1912/1914 28015G25KT RMK FCST BASED ON AUTO OBS. NXT FCST BY 191400Z
       
TAF AMD CYZV 190906Z 1909/2006 30012G22KT P6SM FEW025 
     BECMG 1915/1917 30008G18KT 
     FM200000 31007KT P6SM SKC RMK NXT FCST BY 191200Z
       
TAF CYSC 191039Z 1911/1923 29005KT P6SM FEW240 
     FM192100 VRB03KT P6SM -SN OVC080 RMK FCST BASED ON AUTO OBS. NXT FCST BY
191800Z
       
TAF CYXL 190738Z 1908/1920 VRB03KT P6SM FEW210 
     BECMG 1916/1918 31006KT RMK NXT FCST BY 191400Z
       
TAF AMD CYZH 191029Z 1910/1919 10015G25KT P6SM -SN OVC060 
     TEMPO 1910/1912 5SM -SN 
     FM191200 12015G25KT P6SM SCT020 OVC040 
     TEMPO 1913/1915 BKN020 
     FM191500 14020G30KT P6SM SCT020 OVC040 
     TEMPO 1915/1916 5SM BLSN BKN020 
     FM191600 14020G30KT 3SM -SN BLSN VV020 
     TEMPO 1916/1919 3/4SM -SN BLSN VV008 RMK FCST BASED ON AUTO OBS. NXT FCST
BY 191300Z
       
TAF CYYD 190038Z 1901/1906 17008KT P6SM SCT030 BKN080 
     TEMPO 1901/1906 P6SM -SN BKN030 RMK NXT FCST WILL BE ISSUED AT 191345Z
       
TAF CYAY 190738Z 1908/1920 15015G25KT 6SM -SN OVC025 
     TEMPO 1908/1909 11/2SM -SN BLSN OVC020 
     PROB30 1908/1909 1SM -SN BLSN 
     FM190900 15015G25KT 3/4SM -SN BLSN OVC010 
     TEMPO 1909/1912 6SM -SN OVC010 
     BECMG 1910/1912 15020G30KT 
     FM191200 15025G35KT 3/4SM -SN BLSN VV010 
     BECMG 1913/1915 22025G35KT 6SM BLSN 
     FM191800 24025G35KT P6SM BKN025 
     TEMPO 1918/1920 6SM BLSN BKN020 
     BECMG 1918/1920 26020G30KT RMK FCST BASED ON AUTO OBS. NXT FCST BY 191400Z
       
TAF AMD CYYT 190942Z 1909/2006 16018G28KT 3/4SM -SN BLSN VV005 
     TEMPO 1909/1913 6SM -SN OVC010 
     BECMG 1909/1911 15020G30KT 
     FM191300 17020G30KT 11/2SM -SN OVC008 
     TEMPO 1913/1915 6SM -SNPL OVC010 
     FM191500 18020G30KT 3SM -SNRAPL BR OVC007 
     BECMG 1916/1918 20012KT 
     FM191800 25008KT 5SM -DZ BR SCT007 OVC010 
     FM192100 31018G28KT P6SM BKN020 
     BECMG 1921/1923 30015G25KT FEW020 RMK NXT FCST BY 191200Z
       
TAF CYJT 190538Z 1906/2006 17012KT P6SM OVC030 
     TEMPO 1906/1912 11/2SM -SN BLSN OVC020 
     BECMG 1906/1908 19015G25KT 
     FM191200 29022G32KT P6SM OVC025 
     TEMPO 1912/1914 21/2SM -SHSN BLSN OVC015 
     PROB30 1912/1913 11/2SM -SHSN BLSN 
     FM191400 28020G30KT 4SM -SHSN BLSN BKN025 
     FM191800 28018G28KT P6SM -SHSN BKN030 
     BECMG 1920/1922 29015G25KT 
     BECMG 2003/2005 34010KT RMK NXT FCST BY 191200Z
       
TAF CYSB 190738Z 1908/1920 03010KT P6SM SCT220 
     FM191200 04008KT P6SM BKN150 
     FM191900 04010KT P6SM SKC RMK NXT FCST BY 191400Z
       
TAF CYYN 190538Z 1906/1918 15015KT P6SM OVC050 
     TEMPO 1906/1912 5SM -SN 
     FM191200 14015KT P6SM SCT015 BKN080 
     TEMPO 1912/1918 BKN015 BKN080 RMK FCST BASED ON AUTO OBS. NXT FCST BY
191200Z
       
TAF AMD CYQY 190614Z 1906/1918 VRB03KT 2SM -SN BR BKN003 OVC008 
     TEMPO 1906/1911 P6SM NSW FEW003 FEW008 OVC025 
     PROB30 1906/1911 6SM -FZDZ BR 
     FM191100 30012KT P6SM BKN030 
     TEMPO 1911/1914 5SM -SHSN 
     FM191400 35010KT P6SM SCT030 RMK NXT FCST BY 191200Z
       
TAF CYYH 190542Z 1906/1918 31018G28KT 2SM -SN BR BKN015 BKN040 
     TEMPO 1906/1918 6SM BLSN SCT015 BKN040 RMK NXT FCST BY 191200Z
       
TAF CYXT 190638Z 1907/1919 01022G32KT P6SM -SN SCT020 BKN060 OVC230 
     TEMPO 1907/1909 3SM -SN FEW002 BKN020 OVC060 
     FM190900 01022G32KT 6SM -SN SCT020 OVC060 
     TEMPO 1909/1914 1SM -SN FEW002 BKN020 OVC060 
     FM191400 01022G32KT 1SM -SN SCT002 BKN015 OVC040 
     TEMPO 1914/1919 3SM -SN FEW002 SCT015 OVC060 
     PROB30 1914/1919 3/4SM -SN BLSN RMK NXT FCST BY 191300Z
       
TAF CYQD 190638Z 1907/1919 28006KT P6SM FEW020 
     TEMPO 1907/1910 BKN020 
     BECMG 1914/1916 VRB03KT RMK FCST BASED ON AUTO OBS. NXT FCST BY 191300Z
       
TAF CYTH 190638Z 1907/1919 VRB03KT P6SM IC SKC RMK NXT FCST BY 191300Z
       
TAF CYQT 190738Z 1908/1920 VRB03KT P6SM SKC 
     BECMG 1915/1917 30007KT RMK NXT FCST BY 191400Z
       
TAF CYTS 190738Z 1908/1920 VRB03KT P6SM SKC 
     TEMPO 1908/1914 5SM IC 
     FM191400 16005KT P6SM SCT030 
     BECMG 1918/1920 10006KT SKC RMK NXT FCST BY 191400Z
       
TAF CYTZ 190738Z 1908/2008 36010KT P6SM FEW020 OVC100 
     FM191100 04015KT 21/2SM -SN BLSN BKN020 OVC060 
     TEMPO 1911/1918 6SM -SHSN SCT020 OVC060 
     FM191800 05015G25KT 11/2SM -SN BLSN OVC015 
     FM200100 04015G25KT 3/4SM -SN BLSN VV007 RMK FCST BASED ON AUTO OBS. NXT
FCST BY 191400Z
       
TAF CYYZ 190838Z 1909/2012 02012KT P6SM BKN080 OVC120 
     FM191100 03012KT 21/2SM -SN BKN020 OVC080 
     TEMPO 1911/1914 4SM -SN SCT020 OVC080 
     FM191400 03010G20KT 11/2SM -SN BKN020 OVC060 
     FM192300 02015G25KT 3/4SM -SN BLSN VV007 
     BECMG 2003/2005 01018G28KT 
     FM200800 36020G30KT 2SM -SN BLSN BKN020 OVC060 
     FM201100 35022G32KT 4SM -SN BLSN SCT020 BKN060 RMK NXT FCST BY 191200Z
       
TAF CYTR 190530Z 1906/2006 03010G20KT P6SM SCT040 
     FM190900 03010KT P6SM BKN120 
     FM191100 03010KT 6SM -SN SCT030 OVC100 
     FM191500 03012KT 4SM -SN BKN030 OVC060 
     FM192100 04012KT 2SM -SN BKN015 OVC025 
     FM200200 03012G22KT 11/2SM -SN OVC012 RMK NXT FCST BY 191200Z
       
TAF CYRQ 190738Z 1908/1920 35008KT P6SM SKC 
     FM191800 32006KT P6SM BKN140 RMK FCST BASED ON AUTO OBS. NXT FCST BY
191400Z
       
TAF CYUB 190038Z 1901/1906 11012KT P6SM FEW100 RMK NXT FCST WILL BE ISSUED AT
191545Z
       
TAF CYVO 190538Z 1906/1918 VRB03KT P6SM SKC RMK FCST BASED ON AUTO OBS. NXT FCST
BY 191200Z
       
TAF CYVR 190838Z 1909/2012 10012G22KT P6SM -RA SCT015 OVC030 
     TEMPO 1909/1911 5SM -RA BR OVC015 
     FM191100 17012KT P6SM FEW020 SCT040 
     TEMPO 1911/1919 SCT020 BKN040 
     FM191900 18012KT P6SM SCT020 BKN050 
     TEMPO 1919/2006 P6SM -SHRA BKN020 
     BECMG 2000/2002 12008KT 
     FM200600 12008KT P6SM SCT040 
     TEMPO 2006/2012 BKN040 RMK NXT FCST BY 191200Z
       
TAF CYYJ 190538Z 1906/2006 11012G22KT 6SM -RA BR SCT012 OVC025 
     TEMPO 1906/1911 3SM -RA BR OVC008 
     FM191100 21012G22KT P6SM FEW020 SCT040 
     TEMPO 1915/1920 P6SM -SHRA BKN020 OVC040 
     FM200200 15010KT P6SM SCT020 RMK NXT FCST BY 191200Z
       
TAF CYWK 190738Z 1908/1920 31012G22KT P6SM SCT020 
     TEMPO 1908/1920 5SM IC BKN020 
     PROB30 1908/1914 2SM IC RMK FCST BASED ON AUTO OBS. NXT FCST BY 191400Z
       
TAF CYQH 190538Z 1906/1918 VRB03KT 6SM -SN SCT020 OVC060 
     TEMPO 1906/1918 2SM -SN BKN020 OVC040 RMK NXT FCST BY 191200Z
       
TAF CYXY 190538Z 1906/1918 16010G20KT P6SM FEW020 OVC030 
     TEMPO 1906/1918 5SM -SN BKN020 OVC030 RMK NXT FCST BY 191200Z
       
TAF CYWL 190638Z 1907/1919 11018G28KT 6SM -SN SCT020 BKN040 OVC080 
     TEMPO 1907/1911 2SM -SN OVC020 
     FM191100 11018G28KT P6SM SCT020 SCT080 BKN200 
     TEMPO 1911/1916 5SM -SN BKN020 BKN080 
     FM191600 11015G25KT P6SM SCT120 BKN200 RMK NXT FCST BY 191300Z
       
TAF CYQG 190538Z 1906/2006 04008KT P6SM SCT030 OVC080 
     TEMPO 1906/1907 21/2SM -SN BKN020 OVC060 
     FM190700 04010KT 11/2SM -SN BKN008 OVC020 
     TEMPO 1907/1914 3SM -SN SCT015 OVC030 
     BECMG 1910/1912 04012G22KT 
     FM191400 05018G28KT 3/4SM -SN BLSN VV007 
     FM192000 03020G30KT 11/2SM -SN BLSN SCT010 OVC020 
     FM200300 02020G30KT 3SM -SN BLSN BKN015 OVC180 
     BECMG 2004/2006 35020G30KT RMK FCST BASED ON AUTO OBS. NXT FCST BY 191200Z
       
TAF CYWG 190538Z 1906/2006 23005KT P6SM FEW150 
     BECMG 1919/1921 35008KT 
     FM200500 05006KT P6SM SCT180 RMK NXT FCST BY 191200Z
       
TAF CYQI 190540Z 1906/1918 19005KT 3SM -SN BR OVC004 
     TEMPO 1906/1908 6SM BR SCT004 OVC010 
     PROB30 1906/1908 6SM -FZDZ BR 
     FM190800 32015G25KT 5SM -SHSN BKN015 BKN025 
     TEMPO 1908/1912 P6SM NSW SCT015 BKN025 
     FM191200 33012G22KT P6SM BKN030 RMK NXT FCST BY 191200Z
       
TAF CYZF 190538Z 1906/2006 09005KT P6SM -SN OVC020 
     TEMPO 1906/1910 P6SM NSW OVC025 
     FM191000 10008KT P6SM -SN BKN020 OVC220 
     TEMPO 1910/1913 P6SM NSW BKN025 OVC220 
     FM191300 11010KT P6SM SCT020 OVC220 
     TEMPO 1913/1919 BKN020 
     FM191900 12012G22KT P6SM BKN150 
     FM200300 12012G22KT 5SM -SN BKN040 OVC100 RMK NXT FCST BY 191200Z
       
TAF CYQV 182338Z 1900/1906 VRB03KT P6SM SKC RMK FCST BASED ON AUTO OBS. NXT FCST
WILL BE ISSUED AT 191145Z